ADDS METAR Data INFO
IDs: Format: Raw Decoded Include TAF

Data at: 1553 UTC 24 Sep 2017

KPYX 241535Z AUTO 15008KT 7SM BKN008 OVC013 20/19 A2992 RMK AO2 T02000190
KPYX 241515Z AUTO 14007KT 7SM OVC015 20/19 A2992 RMK AO2 T01960186
KPYX 241455Z AUTO 13008KT 10SM SCT010 BKN017 BKN060 19/18 A2992 RMK AO2 T01920182
KPYX 241435Z AUTO 13006KT 7SM SCT070 OVC085 19/18 A2992 RMK AO2 T01870178
KPYX 241415Z AUTO 13007KT 7SM SCT070 OVC085 19/18 A2991 RMK AO2 T01850176
KPYX 241355Z AUTO 14007G11KT 10SM SCT028 BKN070 OVC100 18/17 A2990 RMK AO2 T01800170
KPYX 241335Z AUTO 12009KT 4SM BKN041 BKN048 OVC085 18/17 A2990 RMK AO2 T01800171
KPYX 241315Z AUTO 13009KT 7SM SCT034 BKN048 OVC085 18/17 A2990 RMK AO2 T01820171
KPYX 241255Z AUTO 14009G14KT 5SM SCT028 BKN041 OVC055 19/18 A2990 RMK AO2 T01850176
KPYX 241235Z AUTO 13008KT 1 3/4SM SCT028 BKN038 OVC050 18/18 A2990 RMK AO2 T01840175
KPYX 241215Z AUTO 12008KT 5SM SCT023 BKN050 OVC095 18/17 A2990 RMK AO2 T01820173
KPYX 241155Z AUTO 09005KT 7SM SCT027 BKN085 OVC095 18/17 A2989 RMK AO2 T01820173 10243 20175
KPYX 241135Z AUTO 10006KT 4SM BKN027 BKN038 OVC075 18/17 A2988 RMK AO2 T01820173
KPYX 241115Z AUTO 08005KT 7SM OVC029 18/17 A2989 RMK AO2 T01830173
KPYX 241055Z AUTO 00000KT 10SM SCT022 OVC031 18/17 A2989 RMK AO2 T01810171
KPYX 241035Z AUTO 00000KT 5SM SCT016 BKN022 OVC029 18/17 A2990 RMK AO2 T01790168
KPYX 241015Z AUTO 30003KT 3SM BKN019 BKN027 OVC033 18/17 A2991 RMK AO2 T01800168
KPYX 240955Z AUTO 00000KT 4SM SCT030 BKN035 OVC060 18/17 A2990 RMK AO2 T01800167
KPYX 240935Z AUTO 05004KT 10SM SCT046 OVC060 18/17 A2989 RMK AO2 T01780166
KPYX 240915Z AUTO 03003KT 10SM SCT045 BKN060 OVC100 18/17 A2989 RMK AO2 T01780166
KPYX 240855Z AUTO 00000KT 7SM BKN044 OVC060 18/16 A2990 RMK AO2 T01770164
KPYX 240835Z AUTO 35003KT 10SM OVC046 18/16 A2990 RMK AO2 T01750162
KPYX 240815Z AUTO 31005KT 7SM OVC043 18/17 A2991 RMK AO2 T01780165
KPYX 240755Z AUTO 28006KT 10SM OVC043 18/16 A2992 RMK AO2 T01800164
KPYX 240735Z AUTO 28010G16KT 7SM OVC041 18/16 A2992 RMK AO2 T01800160
KPYX 240715Z AUTO 27012G18KT 10SM BKN038 OVC044 18/16 A2993 RMK AO2 T01820157
KPYX 240655Z AUTO 25016G25KT 5SM SCT032 BKN050 OVC100 20/16 A2993 RMK AO2 T01970156
KPYX 240635Z AUTO 16019G26KT 10SM SCT075 BKN100 24/15 A2988 RMK AO2 T02430152
KPYX 240615Z AUTO 16019G25KT 10SM CLR 24/15 A2988 RMK AO2 T02420152
KPYX 240555Z AUTO 16017G24KT 10SM CLR 24/15 A2987 RMK AO2 T02410154 10275 20240 403030207
KPYX 240535Z AUTO 16017G25KT 10SM CLR 24/16 A2987 RMK AO2 T02410155
KPYX 240515Z AUTO 16018G26KT 10SM CLR 24/16 A2986 RMK AO2 T02420155
KPYX 240455Z AUTO 15021G29KT 10SM CLR 24/16 A2986 RMK AO2 T02430155
KPYX 240435Z AUTO 15021G26KT 10SM CLR 24/16 A2984 RMK AO2 T02430156
KPYX 240415Z AUTO 14020G25KT 10SM CLR 24/16 A2984 RMK AO2 T02430157
KPYX 240355Z AUTO 14019G25KT 10SM CLR 24/16 A2985 RMK AO2 T02440157
KPYX 240335Z AUTO 15017G22KT 10SM SCT070 24/16 A2985 RMK AO2 T02430157
KPYX 240315Z AUTO 14018G24KT 10SM BKN070 25/16 A2986 RMK AO2 T02460157
KPYX 240255Z AUTO 14014G21KT 10SM CLR 25/16 A2986 RMK AO2 T02470155
KPYX 240235Z AUTO 14015G21KT 10SM SCT065 25/15 A2986 RMK AO2 T02500152
KPYX 240215Z AUTO 14014G21KT 10SM BKN075 26/15 A2986 RMK AO2 T02550150
KPYX 240155Z AUTO 14013KT 10SM SCT070 26/15 A2985 RMK AO2 T02570150
KPYX 240135Z AUTO 15014KT 10SM CLR 26/16 A2985 RMK AO2 T02580156
KPYX 240115Z AUTO 15015G21KT 10SM SCT050 26/16 A2986 RMK AO2 T02630160
KPYX 240055Z AUTO 15014G21KT 10SM SCT050 27/16 A2986 RMK AO2 T02650161
KPYX 240035Z AUTO 14014G22KT 10SM CLR 27/16 A2986 RMK AO2 T02660163
KPYX 240015Z AUTO 14017G21KT 10SM CLR 27/17 A2986 RMK AO2 T02700165
KPYX 232355Z AUTO 16018G25KT 10SM SCT120 28/16 A2986 RMK AO2 T02760162 10303 20276
KPYX 232335Z AUTO 16019G27KT 10SM SCT046 BKN120 29/16 A2986 RMK AO2 T02850164
KPYX 232315Z AUTO 16020G25KT 10SM SCT050 SCT065 BKN120 29/17 A2987 RMK AO2 T02920168
KPYX 232255Z AUTO 16019G25KT 10SM SCT055 BKN070 SCT085 29/17 A2986 RMK AO2 T02850167
KPYX 232235Z AUTO 15021G26KT 10SM SCT055 SCT065 29/17 A2985 RMK AO2 T02850172
KPYX 232215Z AUTO 15018G25KT 10SM CLR 29/18 A2985 RMK AO2 T02920177
KPYX 232155Z AUTO 15022G28KT 10SM SCT050 SCT065 29/17 A2985 RMK AO2 T02900174
KPYX 232135Z AUTO 17019G27KT 10SM SCT048 SCT055 SCT065 30/17 A2987 RMK AO2 T02950165
KPYX 232115Z AUTO 17019G26KT 10SM CLR 30/17 A2988 RMK AO2 T02960166
KPYX 232055Z AUTO 17022G29KT 10SM CLR 30/16 A2988 RMK AO2 T02950163
KPYX 232035Z AUTO 17019G24KT 10SM SCT042 SCT048 30/17 A2989 RMK AO2 T02970170
KPYX 232015Z AUTO 18020G28KT 10SM SCT042 SCT060 SCT090 30/17 A2989 RMK AO2 T03020168
KPYX 231955Z AUTO 16015G23KT 10SM SCT038 SCT065 SCT075 29/18 A2990 RMK AO2 T02920175
KPYX 231935Z AUTO 17018G22KT 10SM SCT036 SCT065 SCT085 30/18 A2990 RMK AO2 T02990177
KPYX 231915Z AUTO 16015G27KT 10SM SCT036 SCT045 SCT060 30/18 A2991 RMK AO2 T03000177
KPYX 231855Z AUTO 16017G25KT 10SM SCT032 SCT038 SCT049 30/18 A2993 RMK AO2 T02950181
KPYX 231835Z AUTO 18018G23KT 10SM SCT030 SCT041 SCT050 29/19 A2993 RMK AO2 T02880185
KPYX 231815Z AUTO 18017G23KT 10SM BKN030 BKN039 29/19 A2994 RMK AO2 T02850188
KPYX 231755Z AUTO 18018G24KT 10SM BKN030 28/19 A2994 RMK AO2 T02800186 10283 20207
KPYX 231735Z AUTO 17016G21KT 150V210 10SM BKN028 28/19 A2994 RMK AO2 T02810190
KPYX 231715Z AUTO 16017G23KT 10SM SCT026 28/19 A2994 RMK AO2 T02750189
KPYX 231655Z AUTO 17017G22KT 10SM SCT024 SCT029 27/19 A2995 RMK AO2 T02740191
KPYX 231635Z AUTO 18011G22KT 10SM SCT022 27/19 A2995 RMK AO2 T02650190
KPYX 231615Z AUTO 17018G23KT 10SM SCT020 27/19 A2995 RMK AO2 T02650191
KPYX 231555Z AUTO 17019G25KT 10SM SCT020 26/19 A2995 RMK AO2 T02620192
KPYX 231535Z AUTO 17018G21KT 10SM SCT018 26/19 A2994 RMK AO2 T02590193
KPYX 231515Z AUTO 17017G21KT 10SM SCT018 25/19 A2993 RMK AO2 T02490191
KPYX 231455Z AUTO 17016G20KT 10SM SCT016 24/19 A2993 RMK AO2 T02410191
KPYX 231435Z AUTO 17015G21KT 10SM SCT014 24/19 A2993 RMK AO2 T02350191
KPYX 231415Z AUTO 18015G19KT 10SM CLR 23/19 A2992 RMK AO2 T02280190
KPYX 231355Z AUTO 17012KT 10SM CLR 22/19 A2993 RMK AO2 T02200190
KPYX 231335Z AUTO 16011KT 10SM CLR 21/19 A2992 RMK AO2 T02130187
KPYX 231315Z AUTO 16013G17KT 10SM CLR 21/19 A2992 RMK AO2 T02080185
KPYX 231255Z AUTO 17012G18KT 10SM CLR 21/18 A2991 RMK AO2 T02070183
KPYX 231235Z AUTO 17012G17KT 10SM CLR 21/18 A2990 RMK AO2 T02080183
KPYX 231215Z AUTO 18014G19KT 10SM CLR 21/18 A2990 RMK AO2 T02110184
KPYX 231155Z AUTO 18016G21KT 10SM CLR 22/19 A2990 RMK AO2 T02150185 10243 20215
KPYX 231135Z AUTO 18014G19KT 10SM CLR 22/18 A2990 RMK AO2 T02150184
KPYX 231115Z AUTO 18013G18KT 10SM CLR 22/18 A2990 RMK AO2 T02160183
KPYX 231055Z AUTO 17012KT 10SM CLR 22/18 A2990 RMK AO2 T02160182
KPYX 231035Z AUTO 17013KT 10SM CLR 22/18 A2990 RMK AO2 T02180182
KPYX 231015Z AUTO 17014G18KT 10SM CLR 22/18 A2990 RMK AO2 T02210182
KPYX 230955Z AUTO 17013G19KT 10SM CLR 22/18 A2990 RMK AO2 T02240182
KPYX 230935Z AUTO 17014G19KT 10SM CLR 23/18 A2989 RMK AO2 T02260182
KPYX 230915Z AUTO 17015G19KT 10SM CLR 23/18 A2989 RMK AO2 T02270182
KPYX 230855Z AUTO 17012G18KT 10SM CLR 23/18 A2989 RMK AO2 T02300183
KPYX 230835Z AUTO 16014G18KT 10SM CLR 23/18 A2989 RMK AO2 T02300183
KPYX 230815Z AUTO 16014G21KT 10SM CLR 23/18 A2989 RMK AO2 T02320183
KPYX 230755Z AUTO 17015G20KT 10SM CLR 24/18 A2989 RMK AO2 T02350184
KPYX 230735Z AUTO 16015G21KT 10SM CLR 24/19 A2989 RMK AO2 T02360185
KPYX 230715Z AUTO 17014G18KT 10SM CLR 24/19 A2989 RMK AO2 T02360185
KPYX 230655Z AUTO 17015G19KT 10SM CLR 24/19 A2988 RMK AO2 T02360185
KPYX 230635Z AUTO 17015G19KT 10SM CLR 24/19 A2988 RMK AO2 T02370186
KPYX 230615Z AUTO 17015G19KT 10SM CLR 24/19 A2988 RMK AO2 T02400185
KPYX 230535Z AUTO 16015G21KT 10SM CLR 25/19 A2988 RMK AO2 T02450185
KPYX 230515Z AUTO 15016G22KT 10SM CLR 25/19 A2988 RMK AO2 T02470186
KPYX 230455Z AUTO 15015KT 10SM CLR 25/19 A2988 RMK AO2 T02500186
KPYX 230435Z AUTO 15016G21KT 10SM CLR 25/19 A2988 RMK AO2 T02510186
KPYX 230415Z AUTO 15014G22KT 10SM CLR 25/19 A2988 RMK AO2 T02530187
KPYX 230355Z AUTO 15017G23KT 10SM CLR 26/19 A2988 RMK AO2 T02550188